Emmenbrucke, Switzerland
Current Conditions -  °F | °C
As of 3:50 AM on Wednesday 22 Oct 2014 (Local Time) from LSME Reporting Station
Scattered Clouds Scattered Clouds  
Wind Chill: 42°   Ceiling: Unl
Heat Index: 46°   Visibility: 6mi
Dew Point: 37°   Wind: 8mph
Humidity: 71%   Direction: 260°W
Pressure: 30.06"   Gusts: NA
Location:  47.07°N, 8.27°E
Report Text: LSME 220150Z AUTO 26007KT 220V290 9999NDV SCT039 SCT076 08/03 Q1018 RMK BLU
Loading
Personal Weather Stations






























Interactive Weather Map
Tropical Storm Tracking
New forecast layout! Learn more

10-Day Weather Forecast

Advertisements
Track Severe Weather on mobile